Glasco, KS

8:50 PM CDT on September 23, 2014 (GMT -0500)
Blosser Municipal | Change Station
CLOSE
Current Station
Airport
Location: Concordia,
Elevation: 1483 ft
Nearby Weather Stations

Elev 1483 ft 39.55 °N, 97.65 °W | Updated 55 minutes ago

Clear
Clear
64 °F
Feels Like 64 °F
N
15
Wind Variable Wind from SE
Gusts 23 mph

Today
High -- | Low -- °F
--% Chance of Precip.
Yesterday
High -- | Low -- °F
Precip. -- in
7:19 AM 7:26 PM
Waning Crescent, 0% visible
Pressure 30.00 in
Visibility 10.0 miles
Clouds Clear
Dew Point 59 °F
Humidity 84%
Rainfall 0.55 in
Snow Depth Not available.
UV 0 out of 12
Pollen 3.70 out of 12
Air Quality Not available.
Flu Activity Not available.
METAR KCNK 240055Z AUTO 13013G20KT 10SM CLR 18/15 A3002 RMK AO2 SLP159 T01780150

More Conditions Fewer Conditions

Pressure 30.00 in
Visibility 10.0 miles
Clouds Clear
Dew Point 59 °F
Humidity 84%
Rainfall 0.55 in
Snow Depth Not available.
UV 0 out of 12
Pollen 3.70 out of 12
Air Quality Not available.
Flu Activity Not available.
METAR KCNK 240055Z AUTO 13013G20KT 10SM CLR 18/15 A3002 RMK AO2 SLP159 T01780150

More Conditions Fewer Conditions

10-Day Weather Forecast

Almanac

Astronomy

Sep. 23, 2014 Rise Set
Actual Time 7:19 AM CDT 7:26 PM CDT
Civil Twilight 6:53 AM CDT 7:53 PM CDT
Nautical Twilight 6:21 AM CDT 8:24 PM CDT
Astronomical Twilight 5:50 AM CDT 8:56 PM CDT
Moon 6:45 AM CDT (9/23) 7:06 PM CDT (9/23)
Length of Visible Light 13h 00m
Length of Day
12h 06m
Tomorrow will be 2m 34s shorter.
Waning Crescent, 0% of the Moon is Illuminated
Today
Waning Crescent
Sep 24
New
Oct 1
First Quarter
Oct 8
Full
Oct 15
Last Quarter

Today's Extremes

State Highs State Lows

Community

WunderPhotos

Upload Photos

1,755,844 photos uploaded!

Nearby

Snow Depth

Station Depth Elevation
No new snow has been reported.

Earthquake Activity

City Distance Mag. Time & Date
No recent earthquake activity has been reported nearby.
Minimum magnitude displayed is 2.5.

Coastal Water Temperatures

Place Temperature
No Stations Reporting

Nearby Weather Stations